Time;durP1;ratioP1;P1;durP2;ratioP2;P2;SDS_P1;SDS_P2;PMS_P1;PMS_P2;Temp;Humidity;BMP_temperature;BMP_pressure;BME280_temperature;BME280_humidity;BME280_pressure;Samples;Min_cycle;Max_cycle;Signal;HPM_P1;HPM_P2
2022/07/19 00:01:27;;;;;;;3.72;2.20;;;22.20;51.80;;;;;;5056702;28;20037;-80
2022/07/19 00:03:53;;;;;;;7.05;2.80;;;22.30;51.40;;;;;;5055983;28;20032;-79
2022/07/19 00:06:18;;;;;;;8.07;2.70;;;22.10;50.60;;;;;;5033309;28;20112;-79
2022/07/19 00:08:44;;;;;;;2.95;2.05;;;21.90;51.20;;;;;;5059603;28;20043;-79
2022/07/19 00:11:09;;;;;;;2.33;1.75;;;21.90;51.20;;;;;;5036499;28;20031;-79
2022/07/19 00:13:35;;;;;;;6.15;2.92;;;21.80;51.00;;;;;;5043018;28;20032;-79
2022/07/19 00:16:00;;;;;;;2.72;2.17;;;21.90;51.70;;;;;;5039371;28;20041;-79
2022/07/19 00:18:26;;;;;;;7.15;3.22;;;21.80;51.20;;;;;;5055457;28;20040;-79
2022/07/19 00:20:52;;;;;;;6.50;2.97;;;21.70;51.60;;;;;;5056990;28;20086;-79
2022/07/19 00:23:17;;;;;;;6.35;3.00;;;21.60;51.60;;;;;;5040478;28;20464;-79
2022/07/19 00:25:43;;;;;;;7.03;2.50;;;21.60;51.50;;;;;;5052824;28;20408;-79
2022/07/19 00:28:08;;;;;;;3.78;1.83;;;21.50;53.30;;;;;;5057447;28;20043;-79
2022/07/19 00:30:34;;;;;;;3.25;2.40;;;21.50;51.80;;;;;;5047489;28;20166;-79
2022/07/19 00:33:01;;;;;;;6.25;2.72;;;21.40;51.40;;;;;;5058355;28;20439;-79
2022/07/19 00:35:26;;;;;;;6.03;2.55;;;21.30;51.30;;;;;;5016005;28;20041;-79
2022/07/19 00:37:52;;;;;;;4.25;2.60;;;21.20;51.90;;;;;;5055193;28;20074;-79
2022/07/19 00:40:22;;;;;;;4.50;2.67;;;21.20;52.30;;;;;;5048055;28;20041;-79
2022/07/19 00:42:48;;;;;;;8.25;2.40;;;21.20;53.00;;;;;;5051161;28;22078;-79
2022/07/19 00:45:14;;;;;;;3.50;2.40;;;21.00;52.60;;;;;;5057712;28;20032;-80
2022/07/19 00:47:40;;;;;;;7.07;3.28;;;21.00;51.90;;;;;;5041938;28;20086;-79
2022/07/19 00:50:06;;;;;;;2.70;2.20;;;21.00;52.90;;;;;;5053425;28;20021;-79
2022/07/19 00:52:31;;;;;;;6.75;2.67;;;21.00;52.10;;;;;;5055429;28;20025;-79
2022/07/19 00:54:57;;;;;;;3.08;2.10;;;20.80;52.00;;;;;;5051364;28;20485;-79
2022/07/19 00:57:23;;;;;;;9.30;2.88;;;20.80;52.30;;;;;;5046943;28;20028;-79
2022/07/19 00:59:51;;;;;;;5.78;2.92;;;20.50;52.50;;;;;;5057755;28;20400;-79
2022/07/19 01:02:16;;;;;;;4.13;2.70;;;20.80;52.30;;;;;;5033213;28;20033;-79
2022/07/19 01:04:42;;;;;;;3.05;2.15;;;20.70;52.50;;;;;;5044830;28;20515;-79
2022/07/19 01:07:07;;;;;;;6.07;2.58;;;20.70;53.10;;;;;;5044074;28;20029;-79
2022/07/19 01:09:36;;;;;;;3.17;2.35;;;20.70;52.60;;;;;;5026155;28;20036;-79
2022/07/19 01:12:02;;;;;;;5.07;2.33;;;20.60;53.20;;;;;;5056367;28;20365;-79
2022/07/19 01:14:28;;;;;;;10.95;2.60;;;20.90;54.00;;;;;;5056339;28;20035;-79
2022/07/19 01:16:53;;;;;;;2.95;2.17;;;20.60;52.80;;;;;;5056122;28;20024;-79
2022/07/19 01:19:19;;;;;;;3.92;2.28;;;20.40;53.20;;;;;;5039347;28;20040;-79
2022/07/19 01:21:44;;;;;;;4.80;2.60;;;20.60;54.00;;;;;;5057355;28;20037;-79
2022/07/19 01:24:10;;;;;;;4.40;2.55;;;20.40;53.20;;;;;;5041535;28;20098;-79
2022/07/19 01:26:35;;;;;;;8.45;2.83;;;20.30;53.60;;;;;;5028273;28;20515;-79
2022/07/19 01:29:01;;;;;;;4.95;2.78;;;20.20;53.20;;;;;;5053978;28;20175;-78
2022/07/19 01:31:26;;;;;;;4.57;2.40;;;20.20;53.10;;;;;;5026723;28;20033;-78
2022/07/19 01:33:52;;;;;;;3.92;2.45;;;20.10;53.70;;;;;;5060115;28;20037;-78
2022/07/19 01:36:17;;;;;;;5.88;2.50;;;20.00;53.40;;;;;;5029362;28;20043;-79
2022/07/19 01:38:43;;;;;;;6.60;2.78;;;19.90;53.70;;;;;;5055480;28;20037;-79
2022/07/19 01:41:09;;;;;;;3.20;2.72;;;19.80;54.10;;;;;;5042318;28;20033;-78
2022/07/19 01:43:34;;;;;;;4.50;2.72;;;19.80;53.80;;;;;;5024307;28;20051;-79
2022/07/19 01:46:00;;;;;;;4.43;3.00;;;19.70;54.00;;;;;;5042815;28;20033;-79
2022/07/19 01:48:25;;;;;;;4.97;2.55;;;19.70;54.10;;;;;;5047468;28;20032;-79
2022/07/19 01:50:51;;;;;;;5.53;2.88;;;19.50;54.40;;;;;;5044437;28;20025;-78
2022/07/19 01:53:17;;;;;;;7.43;3.30;;;19.40;55.70;;;;;;5030975;28;20052;-79
2022/07/19 01:55:42;;;;;;;7.63;3.35;;;19.40;54.80;;;;;;5052246;28;20072;-79
2022/07/19 01:58:08;;;;;;;4.05;2.83;;;19.40;56.40;;;;;;5057748;28;20032;-78
2022/07/19 02:00:33;;;;;;;4.10;2.63;;;19.20;58.00;;;;;;5050350;28;20033;-78
2022/07/19 02:02:59;;;;;;;8.35;2.90;;;19.30;56.10;;;;;;5056388;28;20191;-78
2022/07/19 02:05:24;;;;;;;5.95;3.30;;;19.10;56.60;;;;;;5046150;28;20476;-79
2022/07/19 02:07:50;;;;;;;4.97;2.72;;;19.10;57.80;;;;;;5044064;28;20618;-79
2022/07/19 02:10:16;;;;;;;4.47;2.60;;;19.00;58.80;;;;;;5044386;28;20404;-79
2022/07/19 02:12:41;;;;;;;4.25;2.67;;;18.90;59.20;;;;;;5040371;28;20033;-79
2022/07/19 02:15:07;;;;;;;5.57;2.70;;;19.00;58.40;;;;;;5055257;28;20048;-78
2022/07/19 02:17:33;;;;;;;4.95;3.35;;;19.00;59.40;;;;;;5039795;28;20048;-78
2022/07/19 02:19:58;;;;;;;4.05;2.75;;;19.00;57.40;;;;;;5042827;28;20073;-78
2022/07/19 02:22:24;;;;;;;5.30;3.40;;;19.00;58.00;;;;;;5026857;28;20118;-79
2022/07/19 02:24:49;;;;;;;3.38;2.55;;;19.00;57.40;;;;;;5039391;28;20039;-78
2022/07/19 02:27:15;;;;;;;5.00;2.65;;;19.00;57.50;;;;;;5045960;28;20791;-78
2022/07/19 02:29:41;;;;;;;3.72;2.78;;;19.10;55.70;;;;;;5053138;28;20413;-78
2022/07/19 02:32:06;;;;;;;4.53;2.55;;;19.00;55.60;;;;;;5044511;28;20029;-78
2022/07/19 02:34:32;;;;;;;3.95;3.17;;;18.80;56.70;;;;;;5056162;28;20029;-79
2022/07/19 02:36:58;;;;;;;5.50;3.50;;;18.80;57.80;;;;;;5044712;28;20670;-78
2022/07/19 02:39:23;;;;;;;5.90;2.95;;;18.80;56.40;;;;;;5052901;28;20021;-78
2022/07/19 02:41:49;;;;;;;4.82;2.95;;;18.70;56.90;;;;;;5053710;28;20611;-78
2022/07/19 02:44:15;;;;;;;5.25;2.85;;;18.60;57.80;;;;;;5040643;28;20063;-78
2022/07/19 02:46:40;;;;;;;5.82;2.72;;;18.70;57.00;;;;;;5031921;28;20036;-78
2022/07/19 02:49:06;;;;;;;5.80;3.08;;;18.80;56.00;;;;;;5050059;28;20041;-78
2022/07/19 02:51:31;;;;;;;4.20;3.10;;;18.80;56.10;;;;;;5054370;28;20036;-77
2022/07/19 02:53:57;;;;;;;3.83;2.22;;;18.80;56.70;;;;;;5051890;28;20029;-78
2022/07/19 02:56:22;;;;;;;5.85;3.00;;;18.80;55.40;;;;;;5048900;28;20025;-77
2022/07/19 02:58:48;;;;;;;6.70;3.22;;;18.80;55.50;;;;;;5043525;28;20036;-77
2022/07/19 03:01:13;;;;;;;4.82;3.13;;;18.70;55.50;;;;;;5037626;28;20040;-77
2022/07/19 03:03:49;;;;;;;7.93;3.00;;;18.70;56.30;;;;;;5038137;28;20033;-77
2022/07/19 03:06:16;;;;;;;4.17;2.77;;;18.60;56.10;;;;;;5053952;28;20032;-77
2022/07/19 03:08:41;;;;;;;4.93;3.13;;;18.50;56.60;;;;;;5039169;28;20263;-78
2022/07/19 03:11:07;;;;;;;6.88;2.88;;;18.50;56.10;;;;;;5043023;28;20750;-77
2022/07/19 03:13:32;;;;;;;3.67;3.30;;;18.50;56.80;;;;;;5051513;28;20025;-78
2022/07/19 03:15:58;;;;;;;5.10;2.95;;;18.50;56.10;;;;;;5041327;28;20029;-78
2022/07/19 03:18:24;;;;;;;7.13;3.10;;;18.50;56.80;;;;;;5042035;28;20384;-78
2022/07/19 03:20:49;;;;;;;5.75;2.88;;;18.20;57.80;;;;;;5052340;28;20039;-78
2022/07/19 03:23:15;;;;;;;4.50;3.00;;;18.00;58.20;;;;;;5043487;28;20037;-78
2022/07/19 03:25:40;;;;;;;5.43;3.25;;;18.10;58.20;;;;;;5043238;28;20047;-78
2022/07/19 03:28:06;;;;;;;8.80;3.20;;;18.10;58.60;;;;;;5052783;28;20034;-78
2022/07/19 03:30:31;;;;;;;7.57;3.22;;;18.10;58.40;;;;;;5053377;28;20033;-78
2022/07/19 03:32:58;;;;;;;5.13;3.15;;;18.00;59.10;;;;;;5053423;28;20056;-78
2022/07/19 03:35:23;;;;;;;6.15;2.90;;;17.80;59.20;;;;;;5044812;28;20044;-78
2022/07/19 03:37:49;;;;;;;7.70;2.67;;;17.80;62.60;;;;;;5051058;28;20548;-78
2022/07/19 03:40:14;;;;;;;9.75;3.05;;;17.90;61.20;;;;;;5026982;28;20032;-78
2022/07/19 03:42:40;;;;;;;5.70;2.97;;;17.90;58.80;;;;;;5049989;28;20065;-78
2022/07/19 03:45:06;;;;;;;5.00;3.13;;;17.90;58.90;;;;;;5056232;28;20106;-78
2022/07/19 03:47:31;;;;;;;5.20;2.72;;;17.80;61.70;;;;;;5053187;28;20017;-78
2022/07/19 03:49:57;;;;;;;5.45;2.90;;;17.80;60.10;;;;;;5056320;28;20502;-78
2022/07/19 03:52:23;;;;;;;4.68;2.95;;;17.70;61.90;;;;;;5027368;28;20040;-78
2022/07/19 03:54:49;;;;;;;6.65;2.85;;;17.70;60.40;;;;;;5049231;28;20037;-78
2022/07/19 03:57:15;;;;;;;4.00;2.83;;;17.70;65.40;;;;;;5027120;28;20024;-78
2022/07/19 03:59:40;;;;;;;4.95;3.33;;;17.70;64.30;;;;;;5055378;28;20040;-78
2022/07/19 04:02:06;;;;;;;5.43;3.08;;;17.70;62.60;;;;;;5043142;28;20033;-78
2022/07/19 04:04:31;;;;;;;8.32;3.45;;;17.80;62.80;;;;;;5057287;28;20028;-78
2022/07/19 04:06:57;;;;;;;6.88;2.88;;;17.80;62.20;;;;;;5057045;28;20120;-78
2022/07/19 04:09:23;;;;;;;4.63;2.78;;;17.80;61.20;;;;;;5052772;28;20229;-78
2022/07/19 04:11:48;;;;;;;6.00;2.80;;;17.80;60.00;;;;;;5045197;28;20178;-78
2022/07/19 04:14:14;;;;;;;7.53;2.83;;;17.90;61.30;;;;;;5042810;28;20043;-78
2022/07/19 04:16:40;;;;;;;9.00;3.13;;;17.90;59.10;;;;;;5040750;28;20033;-78
2022/07/19 04:19:05;;;;;;;5.80;2.90;;;17.80;60.50;;;;;;5051329;28;20033;-78
2022/07/19 04:21:31;;;;;;;7.13;2.78;;;17.90;63.30;;;;;;5057914;28;20243;-77
2022/07/19 04:23:56;;;;;;;3.70;2.83;;;17.90;61.30;;;;;;5036698;28;20087;-77
2022/07/19 04:26:22;;;;;;;4.80;3.10;;;18.00;61.10;;;;;;5055201;28;20029;-77
2022/07/19 04:28:47;;;;;;;5.55;3.13;;;18.10;61.30;;;;;;5048819;28;20040;-77
2022/07/19 04:31:14;;;;;;;6.63;3.17;;;18.10;61.60;;;;;;5054806;28;20038;-77
2022/07/19 04:33:40;;;;;;;7.28;2.88;;;18.20;61.90;;;;;;5053476;28;20496;-77
2022/07/19 04:36:05;;;;;;;4.50;2.80;;;18.40;61.70;;;;;;5043927;28;20047;-77
2022/07/19 04:38:31;;;;;;;5.00;2.80;;;18.50;61.00;;;;;;5058711;28;20035;-77
2022/07/19 04:40:56;;;;;;;5.82;2.80;;;18.60;61.20;;;;;;5051565;28;20048;-77
2022/07/19 04:43:22;;;;;;;5.80;2.72;;;18.70;62.30;;;;;;5051302;28;20049;-77
2022/07/19 04:45:47;;;;;;;4.40;2.25;;;18.90;61.40;;;;;;5058188;28;20043;-77
2022/07/19 04:48:13;;;;;;;7.53;2.78;;;19.00;61.30;;;;;;5035953;28;20123;-77
2022/07/19 04:50:39;;;;;;;3.83;2.65;;;19.10;61.60;;;;;;5038864;28;20123;-77
2022/07/19 04:53:05;;;;;;;5.82;2.40;;;19.20;61.50;;;;;;5058084;28;20029;-77
2022/07/19 04:55:31;;;;;;;8.57;3.47;;;19.40;60.80;;;;;;5054840;28;20039;-77
2022/07/19 04:57:57;;;;;;;3.90;2.42;;;19.50;61.10;;;;;;5053741;28;20096;-77
2022/07/19 05:00:22;;;;;;;5.20;2.85;;;19.70;61.90;;;;;;5044919;28;20025;-77
2022/07/19 05:02:48;;;;;;;4.72;2.30;;;19.80;61.40;;;;;;5042773;28;20029;-77
2022/07/19 05:05:14;;;;;;;4.95;2.85;;;20.00;60.30;;;;;;5058198;28;20454;-77
2022/07/19 05:07:40;;;;;;;6.57;2.83;;;20.20;60.60;;;;;;5051199;28;20040;-77
2022/07/19 05:10:06;;;;;;;9.05;3.08;;;20.40;61.30;;;;;;5035774;28;20035;-77
2022/07/19 05:12:32;;;;;;;4.47;3.00;;;20.50;61.30;;;;;;5055979;28;20031;-77
2022/07/19 05:14:58;;;;;;;11.07;4.07;;;20.70;60.60;;;;;;5052859;28;20032;-77
2022/07/19 05:17:24;;;;;;;3.47;2.70;;;20.90;60.40;;;;;;5043884;28;20554;-77
2022/07/19 05:19:50;;;;;;;6.63;2.55;;;21.10;60.90;;;;;;5053903;28;20029;-77
2022/07/19 05:22:15;;;;;;;5.80;2.35;;;21.30;60.50;;;;;;5028794;28;20082;-77
2022/07/19 05:24:41;;;;;;;8.32;3.25;;;21.50;60.50;;;;;;5057782;28;20041;-77
2022/07/19 05:27:06;;;;;;;5.20;2.60;;;21.70;60.70;;;;;;5056819;28;20039;-77
2022/07/19 05:29:32;;;;;;;6.63;2.47;;;21.90;60.40;;;;;;5036730;28;20037;-77
2022/07/19 05:31:57;;;;;;;5.75;2.40;;;22.10;61.00;;;;;;5054919;28;20035;-77
2022/07/19 05:34:23;;;;;;;6.88;3.83;;;22.30;61.10;;;;;;5053900;28;20597;-77
2022/07/19 05:36:49;;;;;;;5.18;2.58;;;22.60;60.70;;;;;;5051139;28;20041;-77
2022/07/19 05:39:14;;;;;;;6.55;2.60;;;22.80;60.40;;;;;;5058694;28;20032;-77
2022/07/19 05:41:40;;;;;;;8.85;2.70;;;23.00;60.60;;;;;;5052228;28;20048;-77
2022/07/19 05:44:06;;;;;;;6.65;2.92;;;23.20;60.40;;;;;;5040228;28;20447;-77
2022/07/19 05:46:31;;;;;;;5.85;2.97;;;23.40;60.30;;;;;;5053706;28;20136;-78
2022/07/19 05:48:57;;;;;;;6.25;3.33;;;23.60;60.10;;;;;;5054492;28;20071;-77
2022/07/19 05:51:23;;;;;;;7.72;3.13;;;23.90;59.90;;;;;;5055591;28;20770;-78
2022/07/19 05:53:48;;;;;;;6.05;2.38;;;24.10;59.80;;;;;;5057157;28;20025;-78
2022/07/19 05:56:14;;;;;;;4.20;2.30;;;24.30;59.60;;;;;;5054602;28;20454;-78
2022/07/19 05:58:40;;;;;;;6.03;3.10;;;24.60;59.80;;;;;;5053838;28;20029;-78
2022/07/19 06:01:18;;;;;;;8.80;2.80;;;24.80;59.50;;;;;;5051361;28;20454;-78
2022/07/19 06:03:44;;;;;;;2.95;2.38;;;25.10;59.30;;;;;;5038445;28;20032;-78
2022/07/19 06:06:10;;;;;;;3.95;2.28;;;25.30;59.00;;;;;;5049698;28;20040;-79
2022/07/19 06:08:35;;;;;;;3.70;2.50;;;25.60;58.60;;;;;;5050351;28;20024;-78
2022/07/19 06:11:01;;;;;;;14.35;3.35;;;25.80;58.40;;;;;;5044887;28;20025;-78
2022/07/19 06:13:27;;;;;;;5.70;2.47;;;26.10;58.30;;;;;;5040174;28;20029;-78
2022/07/19 06:15:52;;;;;;;7.78;2.75;;;26.30;57.90;;;;;;5038817;28;20032;-78
2022/07/19 06:18:18;;;;;;;5.40;2.22;;;26.50;57.50;;;;;;5007093;28;20250;-78
2022/07/19 06:20:43;;;;;;;7.03;2.58;;;26.70;57.30;;;;;;5053367;28;20049;-78
2022/07/19 06:23:09;;;;;;;6.70;2.67;;;26.90;57.10;;;;;;5054960;28;20029;-78
2022/07/19 06:25:34;;;;;;;4.57;2.30;;;27.20;56.60;;;;;;5040001;28;20028;-78
2022/07/19 06:28:00;;;;;;;5.18;2.30;;;27.40;56.20;;;;;;5051915;28;20101;-78
2022/07/19 06:30:26;;;;;;;4.03;2.10;;;27.60;55.90;;;;;;5053162;28;20139;-78
2022/07/19 06:32:51;;;;;;;8.20;2.28;;;27.80;55.70;;;;;;5044173;28;20044;-79
2022/07/19 06:35:17;;;;;;;13.13;2.42;;;28.10;55.10;;;;;;5008729;28;20062;-79
2022/07/19 06:37:42;;;;;;;5.85;1.98;;;28.30;54.30;;;;;;5050890;28;20438;-79
2022/07/19 06:40:08;;;;;;;5.00;2.42;;;28.50;53.70;;;;;;5048897;28;20022;-79
2022/07/19 06:42:34;;;;;;;8.85;2.55;;;28.70;53.30;;;;;;5047379;28;20048;-80
2022/07/19 06:45:01;;;;;;;9.88;2.67;;;28.90;52.90;;;;;;5049137;28;20026;-79
2022/07/19 06:47:30;;;;;;;8.80;2.40;;;29.10;52.90;;;;;;5044382;28;20055;-79
2022/07/19 06:49:55;;;;;;;8.85;2.10;;;29.30;52.50;;;;;;5028927;28;20497;-79
2022/07/19 06:52:21;;;;;;;3.63;2.67;;;29.50;52.10;;;;;;5025880;28;20102;-80
2022/07/19 06:54:47;;;;;;;10.25;2.70;;;29.70;51.90;;;;;;5054743;28;20488;-79
2022/07/19 06:57:12;;;;;;;5.93;2.88;;;29.90;51.70;;;;;;5052599;28;20028;-79
2022/07/19 06:59:38;;;;;;;6.25;2.72;;;30.10;51.50;;;;;;5038337;28;20052;-80
2022/07/19 07:02:04;;;;;;;7.63;2.78;;;30.30;51.40;;;;;;5053450;28;20036;-80
2022/07/19 07:04:30;;;;;;;3.92;2.05;;;30.60;51.50;;;;;;5039469;28;20044;-80
2022/07/19 07:06:56;;;;;;;6.18;2.63;;;30.70;51.10;;;;;;5048825;28;20396;-80
2022/07/19 07:09:22;;;;;;;7.88;2.80;;;30.90;50.90;;;;;;5002833;28;20029;-80
2022/07/19 07:11:47;;;;;;;4.80;2.30;;;31.20;50.90;;;;;;5053690;28;20033;-80
2022/07/19 07:14:13;;;;;;;10.20;3.05;;;31.40;50.40;;;;;;5037425;28;20045;-81
2022/07/19 07:16:39;;;;;;;5.65;2.35;;;31.60;50.20;;;;;;5041285;28;20555;-81
2022/07/19 07:19:05;;;;;;;8.00;2.63;;;31.80;49.70;;;;;;5042210;28;20031;-81
2022/07/19 07:21:33;;;;;;;8.32;2.97;;;32.00;49.60;;;;;;5043949;28;20040;-81
2022/07/19 07:23:59;;;;;;;10.90;3.30;;;32.10;49.80;;;;;;5039262;28;20082;-81
2022/07/19 07:26:24;;;;;;;10.32;3.40;;;32.40;50.30;;;;;;5029342;28;20033;-81
2022/07/19 07:28:50;;;;;;;6.32;2.17;;;32.30;49.70;;;;;;5052240;28;20041;-81
2022/07/19 07:31:16;;;;;;;16.88;3.20;;;32.60;49.20;;;;;;5028985;28;20051;-81
2022/07/19 07:33:41;;;;;;;3.65;1.90;;;32.90;49.00;;;;;;5058527;28;20569;-81
2022/07/19 07:36:07;;;;;;;3.45;1.70;;;32.90;46.60;;;;;;5055272;28;20044;-81
2022/07/19 07:38:33;;;;;;;2.30;1.98;;;32.40;46.70;;;;;;5042095;28;20040;-81
2022/07/19 07:40:58;;;;;;;3.75;1.70;;;33.00;49.30;;;;;;5046220;28;20504;-81
2022/07/19 07:43:24;;;;;;;5.00;2.38;;;32.90;46.00;;;;;;5015664;28;20060;-82
2022/07/19 07:45:49;;;;;;;4.28;1.88;;;32.90;48.70;;;;;;5055478;28;20082;-81
2022/07/19 07:48:15;;;;;;;4.30;1.65;;;33.00;46.40;;;;;;5028096;28;20051;-81
2022/07/19 07:50:41;;;;;;;3.25;2.00;;;33.30;45.20;;;;;;5048713;28;20041;-82
2022/07/19 07:53:06;;;;;;;3.63;2.22;;;33.40;46.90;;;;;;5045161;28;20047;-82
2022/07/19 07:55:37;;;;;;;6.45;2.17;;;33.70;43.60;;;;;;5057143;28;20135;-81
2022/07/19 07:58:02;;;;;;;2.50;1.77;;;33.70;43.70;;;;;;5046000;28;20040;-81
2022/07/19 08:00:28;;;;;;;6.15;2.17;;;34.00;43.70;;;;;;5051944;28;20392;-81
2022/07/19 08:02:53;;;;;;;4.22;1.85;;;34.20;44.40;;;;;;5060203;28;20037;-81
2022/07/19 08:05:21;;;;;;;2.90;1.80;;;34.90;43.20;;;;;;5039618;28;20078;-81
2022/07/19 08:07:47;;;;;;;3.10;1.70;;;34.80;42.30;;;;;;5064947;28;20033;-82
2022/07/19 08:10:12;;;;;;;3.88;2.42;;;35.10;43.10;;;;;;5066623;28;20028;-83
2022/07/19 08:12:38;;;;;;;5.85;1.83;;;35.50;44.80;;;;;;5047799;28;20044;-84
2022/07/19 08:15:05;;;;;;;6.30;2.00;;;35.10;43.40;;;;;;5044717;28;20048;-85
2022/07/19 08:17:30;;;;;;;3.88;2.05;;;35.10;42.70;;;;;;5043220;28;20090;-84
2022/07/19 08:19:56;;;;;;;2.42;1.98;;;35.30;43.50;;;;;;5056331;28;20028;-85
2022/07/19 08:22:21;;;;;;;8.10;1.90;;;35.30;40.70;;;;;;5048124;28;20539;-85
2022/07/19 08:24:47;;;;;;;5.40;2.60;;;35.40;40.30;;;;;;5052070;28;20147;-85
2022/07/19 08:27:13;;;;;;;6.55;2.00;;;35.70;40.50;;;;;;5056488;28;20373;-85
2022/07/19 08:29:39;;;;;;;6.63;2.33;;;35.90;39.90;;;;;;5027170;28;20571;-84
2022/07/19 08:32:05;;;;;;;5.30;2.03;;;35.90;39.80;;;;;;5039914;28;20075;-85
2022/07/19 08:34:30;;;;;;;3.30;1.77;;;36.20;39.50;;;;;;5054984;28;20028;-85
2022/07/19 08:36:56;;;;;;;2.90;2.03;;;36.40;42.70;;;;;;5044005;28;20036;-84
2022/07/19 08:39:22;;;;;;;3.17;1.75;;;36.50;40.10;;;;;;5052454;28;20090;-84
2022/07/19 08:41:47;;;;;;;2.33;2.10;;;36.90;42.10;;;;;;5039941;28;20045;-84
2022/07/19 08:44:13;;;;;;;2.72;1.80;;;36.90;41.20;;;;;;5045312;28;20025;-85
2022/07/19 08:46:41;;;;;;;6.28;2.00;;;37.30;38.30;;;;;;5056509;28;20521;-85
2022/07/19 08:49:08;;;;;;;6.07;2.05;;;37.10;37.40;;;;;;5021080;28;20033;-82
2022/07/19 08:51:34;;;;;;;3.08;1.88;;;37.20;35.60;;;;;;5058388;28;20044;-84
2022/07/19 08:54:01;;;;;;;6.72;2.15;;;37.30;37.30;;;;;;5040555;28;20034;-84
2022/07/19 08:59:11;;;;;;;2.90;1.83;;;37.80;37.10;;;;;;5056625;28;20044;-85
2022/07/19 09:01:36;;;;;;;5.22;2.30;;;38.00;33.80;;;;;;5023481;28;20037;-85
2022/07/19 09:04:13;;;;;;;3.15;1.90;;;38.20;36.30;;;;;;5058529;28;25596;-84
2022/07/19 09:06:42;;;;;;;2.63;2.30;;;38.30;34.60;;;;;;5042110;28;20040;-84
2022/07/19 09:09:08;;;;;;;5.57;2.33;;;38.20;35.20;;;;;;5057719;28;20033;-84
2022/07/19 09:11:53;;;;;;;4.75;1.98;;;38.30;34.30;;;;;;5055108;28;20033;-85
2022/07/19 09:14:21;;;;;;;2.93;1.80;;;38.40;33.80;;;;;;5061724;28;20483;-85
2022/07/19 09:16:57;;;;;;;3.67;2.10;;;38.70;33.90;;;;;;5036705;28;20295;-85
2022/07/19 09:19:26;;;;;;;4.07;1.95;;;39.00;35.50;;;;;;5039945;28;20025;-84
2022/07/19 09:22:00;;;;;;;3.28;1.60;;;39.10;34.20;;;;;;5041730;28;20037;-85
2022/07/19 09:24:26;;;;;;;3.30;1.90;;;39.30;34.50;;;;;;5016621;28;20092;-87
2022/07/19 09:26:57;;;;;;;3.65;1.83;;;39.40;32.20;;;;;;5049552;28;20064;-85
2022/07/19 09:29:23;;;;;;;2.05;1.70;;;39.50;32.80;;;;;;5045812;28;20556;-85
2022/07/19 09:31:58;;;;;;;2.88;1.75;;;39.70;32.80;;;;;;5056944;28;20119;-85
2022/07/19 09:34:38;;;;;;;3.83;1.70;;;39.80;32.50;;;;;;5055160;28;20037;-85
2022/07/19 09:37:07;;;;;;;3.33;1.65;;;40.00;30.60;;;;;;5046415;28;20120;-86
2022/07/19 09:39:32;;;;;;;4.35;1.80;;;40.30;33.00;;;;;;5053138;28;20397;-84
2022/07/19 09:41:58;;;;;;;3.15;2.10;;;40.30;32.40;;;;;;5045355;28;20045;-85
2022/07/19 09:44:23;;;;;;;4.05;1.70;;;40.40;32.70;;;;;;5049443;28;20120;-86
2022/07/19 09:46:50;;;;;;;4.18;2.05;;;40.50;31.10;;;;;;5052693;28;20492;-85
2022/07/19 09:49:17;;;;;;;4.43;1.60;;;40.70;31.40;;;;;;5046668;28;20029;-86
2022/07/19 09:51:50;;;;;;;3.15;1.77;;;40.70;31.70;;;;;;5039741;28;20037;-86
2022/07/19 09:54:17;;;;;;;2.00;1.80;;;40.70;30.20;;;;;;5043461;28;20131;-84
2022/07/19 09:56:43;;;;;;;6.07;1.90;;;41.20;35.70;;;;;;5058347;28;20059;-86
2022/07/19 09:59:09;;;;;;;3.15;2.22;;;41.00;34.20;;;;;;5020819;28;20465;-84
2022/07/19 10:01:35;;;;;;;4.05;1.88;;;41.30;30.20;;;;;;5027266;28;20043;-83
2022/07/19 10:04:08;;;;;;;2.65;1.88;;;41.50;31.10;;;;;;5055621;28;20037;-86
2022/07/19 10:06:33;;;;;;;2.90;1.50;;;41.50;28.20;;;;;;5056348;28;20122;-84
2022/07/19 10:09:00;;;;;;;2.15;1.67;;;41.80;29.00;;;;;;5054937;28;20052;-84
2022/07/19 10:11:26;;;;;;;4.55;1.60;;;41.80;30.30;;;;;;5029525;28;20025;-85
2022/07/19 10:13:51;;;;;;;4.57;1.48;;;41.80;28.50;;;;;;5045979;28;20045;-83
2022/07/19 10:16:24;;;;;;;4.60;2.10;;;42.10;28.20;;;;;;5044882;28;20115;-85
2022/07/19 10:19:08;;;;;;;5.38;1.65;;;42.30;29.60;;;;;;5006702;28;20091;-84
2022/07/19 10:21:34;;;;;;;3.35;2.03;;;42.30;27.50;;;;;;5054600;28;20048;-85
2022/07/19 10:24:00;;;;;;;3.42;1.92;;;42.30;29.00;;;;;;5055737;28;20032;-84
2022/07/19 10:26:41;;;;;;;3.65;1.55;;;42.40;29.40;;;;;;5030433;28;20055;-83
2022/07/19 10:29:11;;;;;;;4.07;1.80;;;42.50;29.60;;;;;;5055748;28;20029;-84
2022/07/19 10:31:36;;;;;;;3.70;1.75;;;42.60;29.40;;;;;;5053253;28;20032;-82
2022/07/19 10:34:04;;;;;;;3.40;1.63;;;42.90;29.10;;;;;;5042387;28;20493;-82
2022/07/19 10:36:41;;;;;;;3.55;1.60;;;42.70;29.00;;;;;;5005617;28;20467;-82
2022/07/19 10:39:31;;;;;;;6.65;2.08;;;42.70;29.80;;;;;;5041013;28;20124;-84
2022/07/19 10:42:18;;;;;;;2.58;1.52;;;43.00;28.80;;;;;;5045024;28;20049;-84
2022/07/19 10:44:56;;;;;;;4.00;1.60;;;43.30;27.20;;;;;;5053928;28;20119;-81
2022/07/19 10:47:31;;;;;;;3.75;1.90;;;43.70;27.10;;;;;;5053544;28;20127;-84
2022/07/19 10:50:02;;;;;;;3.97;1.60;;;43.80;28.60;;;;;;5056017;28;20796;-84
2022/07/19 10:52:28;;;;;;;3.30;1.50;;;43.80;28.10;;;;;;5044277;28;20507;-84
2022/07/19 10:55:15;;;;;;;2.63;1.95;;;43.90;27.10;;;;;;5056499;28;20048;-84
2022/07/19 10:57:41;;;;;;;2.10;1.40;;;44.10;27.50;;;;;;5052614;28;20041;-82
2022/07/19 11:00:26;;;;;;;4.70;1.55;;;44.30;27.60;;;;;;5047263;28;20047;-83
2022/07/19 11:02:52;;;;;;;2.90;1.70;;;44.30;28.10;;;;;;5037200;28;20349;-84
2022/07/19 11:05:26;;;;;;;1.95;1.45;;;44.10;27.50;;;;;;5007547;28;20033;-84
2022/07/19 11:07:53;;;;;;;5.17;1.57;;;44.50;25.40;;;;;;5040157;28;20036;-84
2022/07/19 11:10:25;;;;;;;3.70;1.92;;;44.60;26.80;;;;;;5037035;28;20028;-83
2022/07/19 11:12:51;;;;;;;4.95;1.60;;;44.50;26.20;;;;;;5049303;28;20048;-83
2022/07/19 11:15:16;;;;;;;4.57;1.75;;;44.50;27.20;;;;;;5005895;28;20037;-84
2022/07/19 11:17:56;;;;;;;4.40;1.65;;;44.30;26.80;;;;;;5052959;28;20029;-83
2022/07/19 11:20:23;;;;;;;2.70;1.50;;;45.10;25.90;;;;;;5039247;28;20099;-82
2022/07/19 11:22:48;;;;;;;3.78;1.50;;;45.20;25.50;;;;;;5040640;28;20044;-82
2022/07/19 11:25:15;;;;;;;11.18;1.95;;;45.30;25.80;;;;;;5055072;28;20029;-83
2022/07/19 11:27:42;;;;;;;5.45;1.65;;;45.00;25.80;;;;;;5020607;28;20045;-83
2022/07/19 11:30:08;;;;;;;4.18;1.73;;;45.00;27.30;;;;;;5038090;28;20029;-84
2022/07/19 11:32:33;;;;;;;4.47;1.27;;;45.00;26.80;;;;;;5039260;28;20048;-82
2022/07/19 11:35:01;;;;;;;3.47;1.55;;;45.20;27.30;;;;;;5050977;28;20086;-83
2022/07/19 11:37:28;;;;;;;2.67;1.63;;;45.40;26.80;;;;;;5049958;28;20036;-83
2022/07/19 11:39:54;;;;;;;4.75;1.17;;;45.20;27.00;;;;;;5048228;28;20473;-81
2022/07/19 11:42:37;;;;;;;3.78;1.45;;;45.40;26.20;;;;;;5029077;28;20051;-83
2022/07/19 11:45:09;;;;;;;1.40;1.30;;;45.70;26.90;;;;;;5055056;28;20029;-84
2022/07/19 11:47:35;;;;;;;3.67;1.63;;;45.80;25.70;;;;;;5055569;28;20037;-81
2022/07/19 11:50:05;;;;;;;6.18;1.77;;;45.80;24.20;;;;;;5051326;28;20114;-80
2022/07/19 11:52:44;;;;;;;2.42;1.52;;;46.00;24.50;;;;;;5036661;28;20042;-82
2022/07/19 11:55:09;;;;;;;3.83;1.40;;;45.80;25.30;;;;;;5054426;28;20407;-84
2022/07/19 11:57:35;;;;;;;10.57;1.90;;;45.70;25.90;;;;;;5043212;28;20021;-83
2022/07/19 12:00:01;;;;;;;4.15;1.80;;;45.80;25.40;;;;;;5055303;28;20061;-80
2022/07/19 12:02:26;;;;;;;4.13;1.90;;;45.80;25.70;;;;;;5046519;28;20124;-82
2022/07/19 12:04:52;;;;;;;3.30;1.38;;;45.70;26.30;;;;;;5044924;28;20044;-83
2022/07/19 12:07:18;;;;;;;3.60;1.27;;;45.90;24.50;;;;;;5029230;28;20112;-83
2022/07/19 12:09:44;;;;;;;4.53;1.48;;;46.00;25.20;;;;;;5054223;28;20033;-83
2022/07/19 12:12:14;;;;;;;2.40;1.30;;;46.10;25.20;;;;;;5034535;28;20032;-80
2022/07/19 12:14:40;;;;;;;4.63;1.80;;;46.20;24.80;;;;;;5042042;28;20035;-82
2022/07/19 12:17:14;;;;;;;3.58;1.67;;;46.40;23.30;;;;;;5049119;28;20540;-82
2022/07/19 12:19:40;;;;;;;;;;;46.30;23.10;;;;;;5050105;28;20056;-81
2022/07/19 12:22:06;;;;;;;6.05;1.75;;;46.50;23.00;;;;;;5053878;28;20706;-83
2022/07/19 12:24:32;;;;;;;4.20;1.70;;;46.50;24.10;;;;;;5043384;28;20036;-82
2022/07/19 12:27:06;;;;;;;4.25;2.00;;;46.40;23.60;;;;;;5048280;28;20487;-83
2022/07/19 12:29:41;;;;;;;13.88;2.00;;;46.40;22.90;;;;;;5032111;28;20033;-83
2022/07/19 12:32:15;;;;;;;4.45;1.88;;;46.40;22.90;;;;;;5057705;28;20101;-82
2022/07/19 12:34:51;;;;;;;3.35;1.30;;;46.30;22.60;;;;;;5057598;28;20086;-83
2022/07/19 12:37:26;;;;;;;3.03;1.52;;;46.50;23.40;;;;;;5055682;28;20029;-83
2022/07/19 12:40:03;;;;;;;;;;;46.50;23.40;;;;;;5023793;28;20048;-82
2022/07/19 12:42:49;;;;;;;3.25;1.80;;;46.90;23.20;;;;;;5054938;28;19990;-82
2022/07/19 12:45:19;;;;;;;1.63;1.40;;;46.60;23.00;;;;;;5050679;28;20104;-83
2022/07/19 12:47:44;;;;;;;2.25;1.67;;;46.80;24.60;;;;;;5057113;28;20127;-83
2022/07/19 12:50:24;;;;;;;2.78;1.35;;;46.70;23.60;;;;;;5045549;28;20139;-81